Terminal Aerodrome Forecast
Issued by NWS Louisville, KY

Home | Current Version | Previous Version | Text Only | Print | Product List | Glossary On
Versions: 1 2 3 4 5 6 7 8 9 10 11 12 13 14 15
000
FTUS43 KLMK 270520
TAFBWG
TAF
KBWG 270520Z 2706/2806 25003KT 5SM BR SCT050 BKN150
     FM271300 28008KT P6SM SCT050 BKN150
     FM271600 27011G18KT P6SM SCT050
     FM280000 28005KT P6SM SKC=

USA.gov is the U.S. government's official web portal to all federal, state and local government web resources and services.